sensor_id;sensor_type;location;lat;lon;timestamp;pressure;altitude;pressure_sealevel;temperature;humidity
63607;BME280;51327;52.466;-1.938;2022-10-16T00:01:13;98330.53;;;6.61;100.00
63607;BME280;51327;52.466;-1.938;2022-10-16T00:03:42;98388.69;;;6.88;100.00
63607;BME280;51327;52.466;-1.938;2022-10-16T00:06:09;98413.03;;;7.06;100.00
63607;BME280;51327;52.466;-1.938;2022-10-16T00:08:36;98369.31;;;6.75;100.00
63607;BME280;51327;52.466;-1.938;2022-10-16T00:13:34;98425.56;;;7.04;100.00
63607;BME280;51327;52.466;-1.938;2022-10-16T00:16:01;98427.28;;;7.05;100.00
63607;BME280;51327;52.466;-1.938;2022-10-16T00:18:29;98439.06;;;7.01;100.00
63607;BME280;51327;52.466;-1.938;2022-10-16T00:21:13;98441.28;;;7.07;100.00
63607;BME280;51327;52.466;-1.938;2022-10-16T00:23:39;98504.00;;;7.34;100.00
63607;BME280;51327;52.466;-1.938;2022-10-16T00:26:10;98508.44;;;7.33;100.00
63607;BME280;51327;52.466;-1.938;2022-10-16T00:28:37;98515.56;;;7.32;100.00
63607;BME280;51327;52.466;-1.938;2022-10-16T00:31:04;98501.53;;;7.30;100.00
63607;BME280;51327;52.466;-1.938;2022-10-16T00:33:33;98489.66;;;7.23;100.00
63607;BME280;51327;52.466;-1.938;2022-10-16T00:35:59;98498.47;;;7.24;100.00
63607;BME280;51327;52.466;-1.938;2022-10-16T00:38:25;98373.81;;;6.48;100.00
63607;BME280;51327;52.466;-1.938;2022-10-16T00:40:53;98474.97;;;7.06;100.00
63607;BME280;51327;52.466;-1.938;2022-10-16T00:43:42;98493.84;;;7.15;100.00
63607;BME280;51327;52.466;-1.938;2022-10-16T00:49:03;98426.72;;;6.76;100.00
63607;BME280;51327;52.466;-1.938;2022-10-16T00:51:35;98488.53;;;7.15;100.00
63607;BME280;51327;52.466;-1.938;2022-10-16T00:54:06;98525.56;;;7.29;100.00
63607;BME280;51327;52.466;-1.938;2022-10-16T00:56:33;98498.06;;;7.17;100.00
63607;BME280;51327;52.466;-1.938;2022-10-16T00:59:02;98491.72;;;7.07;100.00
63607;BME280;51327;52.466;-1.938;2022-10-16T01:01:31;98465.44;;;6.91;100.00
63607;BME280;51327;52.466;-1.938;2022-10-16T01:03:56;98472.31;;;6.94;100.00
63607;BME280;51327;52.466;-1.938;2022-10-16T01:06:29;98534.47;;;7.28;100.00
63607;BME280;51327;52.466;-1.938;2022-10-16T01:12:24;98543.28;;;7.28;100.00
63607;BME280;51327;52.466;-1.938;2022-10-16T01:15:08;98536.19;;;7.29;100.00
63607;BME280;51327;52.466;-1.938;2022-10-16T01:17:43;98537.56;;;7.22;100.00
63607;BME280;51327;52.466;-1.938;2022-10-16T01:20:50;98490.81;;;6.95;100.00
63607;BME280;51327;52.466;-1.938;2022-10-16T01:29:05;98569.50;;;7.33;100.00
63607;BME280;51327;52.466;-1.938;2022-10-16T01:31:36;98520.72;;;7.10;100.00
63607;BME280;51327;52.466;-1.938;2022-10-16T01:34:14;98564.09;;;7.35;100.00
63607;BME280;51327;52.466;-1.938;2022-10-16T01:36:46;98446.59;;;6.70;100.00
63607;BME280;51327;52.466;-1.938;2022-10-16T01:39:20;98508.72;;;7.04;100.00
63607;BME280;51327;52.466;-1.938;2022-10-16T01:41:56;98520.28;;;7.16;100.00
63607;BME280;51327;52.466;-1.938;2022-10-16T01:44:29;98503.84;;;7.11;100.00
63607;BME280;51327;52.466;-1.938;2022-10-16T01:46:59;98494.50;;;7.05;100.00
63607;BME280;51327;52.466;-1.938;2022-10-16T01:49:27;98586.66;;;7.66;100.00
63607;BME280;51327;52.466;-1.938;2022-10-16T01:51:56;98551.97;;;7.43;100.00
63607;BME280;51327;52.466;-1.938;2022-10-16T01:54:28;98605.78;;;7.71;100.00
63607;BME280;51327;52.466;-1.938;2022-10-16T01:56:56;98574.38;;;7.52;100.00
63607;BME280;51327;52.466;-1.938;2022-10-16T01:59:25;98558.47;;;7.39;100.00
63607;BME280;51327;52.466;-1.938;2022-10-16T02:01:59;98592.09;;;7.64;100.00
63607;BME280;51327;52.466;-1.938;2022-10-16T02:04:53;98592.00;;;7.53;100.00
63607;BME280;51327;52.466;-1.938;2022-10-16T02:07:22;98529.09;;;7.17;100.00
63607;BME280;51327;52.466;-1.938;2022-10-16T02:09:48;98600.41;;;7.47;100.00
63607;BME280;51327;52.466;-1.938;2022-10-16T02:12:26;98567.66;;;7.22;100.00
63607;BME280;51327;52.466;-1.938;2022-10-16T02:14:55;98588.75;;;7.24;100.00
63607;BME280;51327;52.466;-1.938;2022-10-16T02:17:21;98597.78;;;7.21;100.00
63607;BME280;51327;52.466;-1.938;2022-10-16T02:19:49;98621.28;;;7.27;100.00
63607;BME280;51327;52.466;-1.938;2022-10-16T02:22:26;98603.97;;;7.09;100.00
63607;BME280;51327;52.466;-1.938;2022-10-16T02:30:25;98613.22;;;6.90;100.00
63607;BME280;51327;52.466;-1.938;2022-10-16T02:32:57;98614.66;;;6.95;100.00
63607;BME280;51327;52.466;-1.938;2022-10-16T02:35:25;98567.13;;;6.66;100.00
63607;BME280;51327;52.466;-1.938;2022-10-16T02:37:53;98630.50;;;6.96;100.00
63607;BME280;51327;52.466;-1.938;2022-10-16T02:40:22;98641.47;;;7.04;100.00
63607;BME280;51327;52.466;-1.938;2022-10-16T02:42:51;98555.75;;;6.51;100.00
63607;BME280;51327;52.466;-1.938;2022-10-16T02:45:18;98662.69;;;7.04;100.00
63607;BME280;51327;52.466;-1.938;2022-10-16T02:47:43;98665.53;;;7.01;100.00
63607;BME280;51327;52.466;-1.938;2022-10-16T02:50:11;98551.78;;;6.31;100.00
63607;BME280;51327;52.466;-1.938;2022-10-16T02:52:37;98634.19;;;6.68;100.00
63607;BME280;51327;52.466;-1.938;2022-10-16T02:55:03;98639.50;;;6.68;100.00
63607;BME280;51327;52.466;-1.938;2022-10-16T02:57:31;98685.28;;;6.84;100.00
63607;BME280;51327;52.466;-1.938;2022-10-16T02:59:57;98658.50;;;6.75;100.00
63607;BME280;51327;52.466;-1.938;2022-10-16T03:02:23;98679.53;;;6.78;100.00
63607;BME280;51327;52.466;-1.938;2022-10-16T03:04:50;98704.91;;;6.82;100.00
63607;BME280;51327;52.466;-1.938;2022-10-16T03:07:16;98691.69;;;6.67;100.00
63607;BME280;51327;52.466;-1.938;2022-10-16T03:09:42;98694.56;;;6.64;100.00
63607;BME280;51327;52.466;-1.938;2022-10-16T03:12:09;98673.41;;;6.50;100.00
63607;BME280;51327;52.466;-1.938;2022-10-16T03:14:37;98709.09;;;6.59;100.00
63607;BME280;51327;52.466;-1.938;2022-10-16T03:17:03;98728.84;;;6.67;100.00
63607;BME280;51327;52.466;-1.938;2022-10-16T03:19:30;98732.66;;;6.63;100.00
63607;BME280;51327;52.466;-1.938;2022-10-16T03:21:56;98739.34;;;6.69;100.00
63607;BME280;51327;52.466;-1.938;2022-10-16T03:24:22;98680.56;;;6.35;100.00
63607;BME280;51327;52.466;-1.938;2022-10-16T03:26:50;98721.78;;;6.54;100.00
63607;BME280;51327;52.466;-1.938;2022-10-16T03:29:18;98753.22;;;6.60;100.00
63607;BME280;51327;52.466;-1.938;2022-10-16T03:31:43;98714.84;;;6.38;100.00
63607;BME280;51327;52.466;-1.938;2022-10-16T03:34:09;98754.56;;;6.53;100.00
63607;BME280;51327;52.466;-1.938;2022-10-16T03:36:37;98767.16;;;6.49;100.00
63607;BME280;51327;52.466;-1.938;2022-10-16T03:39:03;98772.22;;;6.39;100.00
63607;BME280;51327;52.466;-1.938;2022-10-16T03:41:28;98749.91;;;6.29;100.00
63607;BME280;51327;52.466;-1.938;2022-10-16T03:43:56;98721.72;;;6.14;100.00
63607;BME280;51327;52.466;-1.938;2022-10-16T03:46:22;98738.78;;;6.10;100.00
63607;BME280;51327;52.466;-1.938;2022-10-16T03:48:47;98717.59;;;5.95;100.00
63607;BME280;51327;52.466;-1.938;2022-10-16T03:51:15;98723.38;;;6.02;100.00
63607;BME280;51327;52.466;-1.938;2022-10-16T03:53:41;98707.06;;;5.94;100.00
63607;BME280;51327;52.466;-1.938;2022-10-16T03:56:06;98741.03;;;6.01;100.00
63607;BME280;51327;52.466;-1.938;2022-10-16T03:58:34;98780.69;;;6.17;100.00
63607;BME280;51327;52.466;-1.938;2022-10-16T04:01:00;98782.03;;;6.10;100.00
63607;BME280;51327;52.466;-1.938;2022-10-16T04:03:26;98727.69;;;5.74;100.00
63607;BME280;51327;52.466;-1.938;2022-10-16T04:05:53;98802.19;;;6.13;100.00
63607;BME280;51327;52.466;-1.938;2022-10-16T04:08:19;98745.94;;;5.79;100.00
63607;BME280;51327;52.466;-1.938;2022-10-16T04:10:46;98799.72;;;6.10;100.00
63607;BME280;51327;52.466;-1.938;2022-10-16T04:13:14;98802.88;;;6.02;100.00
63607;BME280;51327;52.466;-1.938;2022-10-16T04:15:40;98785.13;;;5.88;100.00
63607;BME280;51327;52.466;-1.938;2022-10-16T04:18:05;98818.84;;;6.00;100.00
63607;BME280;51327;52.466;-1.938;2022-10-16T04:20:33;98814.50;;;5.99;100.00
63607;BME280;51327;52.466;-1.938;2022-10-16T04:22:59;98774.72;;;5.71;100.00
63607;BME280;51327;52.466;-1.938;2022-10-16T04:25:25;98805.09;;;5.79;100.00
63607;BME280;51327;52.466;-1.938;2022-10-16T04:27:53;98799.31;;;5.73;100.00
63607;BME280;51327;52.466;-1.938;2022-10-16T04:30:20;98819.47;;;5.75;100.00
63607;BME280;51327;52.466;-1.938;2022-10-16T04:32:50;98741.25;;;5.11;100.00
63607;BME280;51327;52.466;-1.938;2022-10-16T04:35:19;98873.06;;;5.95;100.00
63607;BME280;51327;52.466;-1.938;2022-10-16T04:37:45;98824.75;;;5.61;100.00
63607;BME280;51327;52.466;-1.938;2022-10-16T04:40:11;98829.31;;;5.59;100.00
63607;BME280;51327;52.466;-1.938;2022-10-16T04:42:39;98863.94;;;5.70;100.00
63607;BME280;51327;52.466;-1.938;2022-10-16T04:45:05;98823.88;;;5.46;100.00
63607;BME280;51327;52.466;-1.938;2022-10-16T04:47:31;98882.56;;;5.69;100.00
63607;BME280;51327;52.466;-1.938;2022-10-16T04:49:59;98837.56;;;5.38;100.00
63607;BME280;51327;52.466;-1.938;2022-10-16T04:52:28;98870.31;;;5.52;100.00
63607;BME280;51327;52.466;-1.938;2022-10-16T04:54:53;98888.84;;;5.52;100.00
63607;BME280;51327;52.466;-1.938;2022-10-16T04:57:22;98928.97;;;5.60;100.00
63607;BME280;51327;52.466;-1.938;2022-10-16T04:59:48;98849.41;;;5.17;100.00
63607;BME280;51327;52.466;-1.938;2022-10-16T05:02:14;98879.44;;;5.32;100.00
63607;BME280;51327;52.466;-1.938;2022-10-16T05:04:41;98930.81;;;5.43;100.00
63607;BME280;51327;52.466;-1.938;2022-10-16T05:07:07;98951.66;;;5.50;100.00
63607;BME280;51327;52.466;-1.938;2022-10-16T05:09:33;98939.56;;;5.30;100.00
63607;BME280;51327;52.466;-1.938;2022-10-16T05:12:01;98975.13;;;5.40;100.00
63607;BME280;51327;52.466;-1.938;2022-10-16T05:14:29;98926.41;;;5.12;100.00
63607;BME280;51327;52.466;-1.938;2022-10-16T05:16:55;98935.31;;;5.11;100.00
63607;BME280;51327;52.466;-1.938;2022-10-16T05:19:22;98949.78;;;5.20;100.00
63607;BME280;51327;52.466;-1.938;2022-10-16T05:21:48;98906.47;;;4.91;100.00
63607;BME280;51327;52.466;-1.938;2022-10-16T05:24:14;98930.03;;;4.95;100.00
63607;BME280;51327;52.466;-1.938;2022-10-16T05:26:41;98973.97;;;5.14;100.00
63607;BME280;51327;52.466;-1.938;2022-10-16T05:29:07;98922.16;;;4.78;100.00
63607;BME280;51327;52.466;-1.938;2022-10-16T05:31:33;98940.66;;;4.78;100.00
63607;BME280;51327;52.466;-1.938;2022-10-16T05:34:00;99006.84;;;5.10;100.00
63607;BME280;51327;52.466;-1.938;2022-10-16T05:36:28;99004.63;;;5.02;100.00
63607;BME280;51327;52.466;-1.938;2022-10-16T05:38:54;98944.38;;;4.58;100.00
63607;BME280;51327;52.466;-1.938;2022-10-16T05:41:21;98985.06;;;4.89;100.00
63607;BME280;51327;52.466;-1.938;2022-10-16T05:43:52;98989.97;;;4.79;100.00
63607;BME280;51327;52.466;-1.938;2022-10-16T05:46:18;99003.38;;;4.76;100.00
63607;BME280;51327;52.466;-1.938;2022-10-16T05:48:44;98902.69;;;4.14;100.00
63607;BME280;51327;52.466;-1.938;2022-10-16T05:51:14;98995.63;;;4.73;100.00
63607;BME280;51327;52.466;-1.938;2022-10-16T05:53:40;98970.22;;;4.53;100.00
63607;BME280;51327;52.466;-1.938;2022-10-16T05:56:09;99036.50;;;4.83;100.00
63607;BME280;51327;52.466;-1.938;2022-10-16T05:58:37;98890.53;;;3.94;100.00
63607;BME280;51327;52.466;-1.938;2022-10-16T06:01:11;99022.22;;;4.70;100.00
63607;BME280;51327;52.466;-1.938;2022-10-16T06:03:37;98984.84;;;4.43;100.00
63607;BME280;51327;52.466;-1.938;2022-10-16T06:06:20;99053.63;;;4.76;100.00
63607;BME280;51327;52.466;-1.938;2022-10-16T06:08:49;99054.66;;;4.73;100.00
63607;BME280;51327;52.466;-1.938;2022-10-16T06:11:21;99009.66;;;4.40;100.00
63607;BME280;51327;52.466;-1.938;2022-10-16T06:13:58;99052.09;;;4.72;100.00
63607;BME280;51327;52.466;-1.938;2022-10-16T06:16:26;99053.28;;;4.66;100.00
63607;BME280;51327;52.466;-1.938;2022-10-16T06:18:52;99057.00;;;4.62;100.00
63607;BME280;51327;52.466;-1.938;2022-10-16T06:21:23;99025.88;;;4.34;100.00
63607;BME280;51327;52.466;-1.938;2022-10-16T06:23:56;99029.44;;;4.33;100.00
63607;BME280;51327;52.466;-1.938;2022-10-16T06:26:25;99050.56;;;4.50;100.00
63607;BME280;51327;52.466;-1.938;2022-10-16T06:28:51;99014.81;;;4.26;100.00
63607;BME280;51327;52.466;-1.938;2022-10-16T06:31:18;99060.38;;;4.48;100.00
63607;BME280;51327;52.466;-1.938;2022-10-16T06:33:44;99086.56;;;4.53;100.00
63607;BME280;51327;52.466;-1.938;2022-10-16T06:36:14;99033.50;;;4.23;100.00
63607;BME280;51327;52.466;-1.938;2022-10-16T06:38:43;99077.88;;;4.51;100.00
63607;BME280;51327;52.466;-1.938;2022-10-16T06:41:11;99079.50;;;4.36;100.00
63607;BME280;51327;52.466;-1.938;2022-10-16T06:43:37;98986.94;;;3.85;100.00
63607;BME280;51327;52.466;-1.938;2022-10-16T06:46:06;99079.41;;;4.37;100.00
63607;BME280;51327;52.466;-1.938;2022-10-16T06:48:36;99048.09;;;4.12;100.00
63607;BME280;51327;52.466;-1.938;2022-10-16T06:51:02;99104.72;;;4.43;100.00
63607;BME280;51327;52.466;-1.938;2022-10-16T06:53:33;99107.00;;;4.49;100.00
63607;BME280;51327;52.466;-1.938;2022-10-16T06:56:12;99046.94;;;4.18;100.00
63607;BME280;51327;52.466;-1.938;2022-10-16T06:58:40;99094.38;;;4.38;100.00
63607;BME280;51327;52.466;-1.938;2022-10-16T07:01:06;99129.72;;;4.53;100.00
63607;BME280;51327;52.466;-1.938;2022-10-16T07:03:33;99036.91;;;4.07;100.00
63607;BME280;51327;52.466;-1.938;2022-10-16T07:06:02;99095.03;;;4.42;100.00
63607;BME280;51327;52.466;-1.938;2022-10-16T07:08:35;99067.63;;;4.27;100.00
63607;BME280;51327;52.466;-1.938;2022-10-16T07:11:07;99125.84;;;4.60;100.00
63607;BME280;51327;52.466;-1.938;2022-10-16T07:13:34;99105.25;;;4.50;100.00
63607;BME280;51327;52.466;-1.938;2022-10-16T07:16:11;99033.31;;;4.08;100.00
63607;BME280;51327;52.466;-1.938;2022-10-16T07:18:48;99121.63;;;4.56;100.00
63607;BME280;51327;52.466;-1.938;2022-10-16T07:21:17;99099.16;;;4.30;100.00
63607;BME280;51327;52.466;-1.938;2022-10-16T07:23:45;99062.16;;;4.13;100.00
63607;BME280;51327;52.466;-1.938;2022-10-16T07:26:15;99153.00;;;4.64;100.00
63607;BME280;51327;52.466;-1.938;2022-10-16T07:28:42;99146.75;;;4.65;100.00
63607;BME280;51327;52.466;-1.938;2022-10-16T07:31:11;99028.19;;;3.88;100.00
63607;BME280;51327;52.466;-1.938;2022-10-16T07:33:39;99170.97;;;4.75;100.00
63607;BME280;51327;52.466;-1.938;2022-10-16T07:36:07;99151.97;;;4.67;100.00
63607;BME280;51327;52.466;-1.938;2022-10-16T07:38:36;99166.75;;;4.71;100.00
63607;BME280;51327;52.466;-1.938;2022-10-16T07:41:06;99164.91;;;4.73;100.00
63607;BME280;51327;52.466;-1.938;2022-10-16T07:43:33;99152.03;;;4.65;100.00
63607;BME280;51327;52.466;-1.938;2022-10-16T07:46:02;99220.44;;;5.08;100.00
63607;BME280;51327;52.466;-1.938;2022-10-16T07:48:30;99220.25;;;5.11;100.00
63607;BME280;51327;52.466;-1.938;2022-10-16T07:51:06;99188.13;;;4.84;100.00
63607;BME280;51327;52.466;-1.938;2022-10-16T07:53:34;99237.41;;;5.21;100.00
63607;BME280;51327;52.466;-1.938;2022-10-16T07:56:05;99189.56;;;4.91;100.00
63607;BME280;51327;52.466;-1.938;2022-10-16T07:58:32;99176.81;;;4.81;100.00
63607;BME280;51327;52.466;-1.938;2022-10-16T08:01:03;99229.69;;;5.16;100.00
63607;BME280;51327;52.466;-1.938;2022-10-16T08:03:29;99214.81;;;5.14;100.00
63607;BME280;51327;52.466;-1.938;2022-10-16T08:05:57;99260.03;;;5.44;100.00
63607;BME280;51327;52.466;-1.938;2022-10-16T08:08:25;99244.53;;;5.36;100.00
63607;BME280;51327;52.466;-1.938;2022-10-16T08:10:52;99257.31;;;5.46;100.00
63607;BME280;51327;52.466;-1.938;2022-10-16T08:13:18;99252.94;;;5.44;100.00
63607;BME280;51327;52.466;-1.938;2022-10-16T08:15:46;99200.66;;;5.15;100.00
63607;BME280;51327;52.466;-1.938;2022-10-16T08:18:13;99254.31;;;5.52;100.00
63607;BME280;51327;52.466;-1.938;2022-10-16T08:20:41;99261.09;;;5.57;100.00
63607;BME280;51327;52.466;-1.938;2022-10-16T08:23:11;99229.09;;;5.44;100.00
63607;BME280;51327;52.466;-1.938;2022-10-16T08:25:40;99212.91;;;5.33;100.00
63607;BME280;51327;52.466;-1.938;2022-10-16T08:28:09;99242.38;;;5.60;100.00
63607;BME280;51327;52.466;-1.938;2022-10-16T08:30:36;99270.38;;;5.82;100.00
63607;BME280;51327;52.466;-1.938;2022-10-16T08:33:02;99277.84;;;5.91;100.00
63607;BME280;51327;52.466;-1.938;2022-10-16T08:35:30;99275.56;;;6.01;100.00
63607;BME280;51327;52.466;-1.938;2022-10-16T08:37:56;99279.69;;;6.06;100.00
63607;BME280;51327;52.466;-1.938;2022-10-16T08:40:27;99313.94;;;6.27;100.00
63607;BME280;51327;52.466;-1.938;2022-10-16T08:48:30;99316.59;;;6.27;100.00
63607;BME280;51327;52.466;-1.938;2022-10-16T08:51:02;99338.59;;;6.45;100.00
63607;BME280;51327;52.466;-1.938;2022-10-16T08:53:43;99311.69;;;6.35;100.00
63607;BME280;51327;52.466;-1.938;2022-10-16T08:56:12;99333.69;;;6.53;100.00
63607;BME280;51327;52.466;-1.938;2022-10-16T08:58:39;99304.31;;;6.40;100.00
63607;BME280;51327;52.466;-1.938;2022-10-16T09:01:15;99341.72;;;6.67;100.00
63607;BME280;51327;52.466;-1.938;2022-10-16T09:06:56;99346.19;;;6.83;100.00
63607;BME280;51327;52.466;-1.938;2022-10-16T09:12:31;99352.56;;;6.95;100.00
63607;BME280;51327;52.466;-1.938;2022-10-16T09:20:56;99362.91;;;7.15;100.00
63607;BME280;51327;52.466;-1.938;2022-10-16T09:23:30;99362.75;;;7.18;100.00
63607;BME280;51327;52.466;-1.938;2022-10-16T09:25:58;99376.53;;;7.25;100.00
63607;BME280;51327;52.466;-1.938;2022-10-16T09:28:24;99303.88;;;6.96;100.00
63607;BME280;51327;52.466;-1.938;2022-10-16T09:30:50;99356.38;;;7.37;100.00
63607;BME280;51327;52.466;-1.938;2022-10-16T09:33:21;99334.88;;;7.25;100.00
63607;BME280;51327;52.466;-1.938;2022-10-16T09:35:50;99359.69;;;7.40;100.00
63607;BME280;51327;52.466;-1.938;2022-10-16T09:38:22;99304.25;;;7.04;100.00
63607;BME280;51327;52.466;-1.938;2022-10-16T09:40:50;99355.91;;;7.44;100.00
63607;BME280;51327;52.466;-1.938;2022-10-16T09:43:36;99362.50;;;7.67;100.00
63607;BME280;51327;52.466;-1.938;2022-10-16T09:46:08;99318.34;;;7.50;100.00
63607;BME280;51327;52.466;-1.938;2022-10-16T09:48:49;99302.28;;;7.38;100.00
63607;BME280;51327;52.466;-1.938;2022-10-16T09:51:22;99364.25;;;7.83;100.00
63607;BME280;51327;52.466;-1.938;2022-10-16T09:53:49;99355.34;;;7.84;100.00
63607;BME280;51327;52.466;-1.938;2022-10-16T09:56:29;99332.19;;;7.86;100.00
63607;BME280;51327;52.466;-1.938;2022-10-16T09:58:58;99376.44;;;8.15;100.00
63607;BME280;51327;52.466;-1.938;2022-10-16T10:01:36;99304.25;;;7.79;100.00
63607;BME280;51327;52.466;-1.938;2022-10-16T10:04:03;99381.97;;;8.27;100.00
63607;BME280;51327;52.466;-1.938;2022-10-16T10:06:35;99318.22;;;7.97;100.00
63607;BME280;51327;52.466;-1.938;2022-10-16T10:11:49;99376.72;;;8.40;99.83
63607;BME280;51327;52.466;-1.938;2022-10-16T10:19:59;99380.06;;;8.57;98.73
63607;BME280;51327;52.466;-1.938;2022-10-16T10:34:09;99368.09;;;8.92;94.51
63607;BME280;51327;52.466;-1.938;2022-10-16T10:36:46;99326.38;;;8.65;94.04
63607;BME280;51327;52.466;-1.938;2022-10-16T10:39:37;99360.97;;;8.92;93.30
63607;BME280;51327;52.466;-1.938;2022-10-16T10:42:12;99357.13;;;9.11;91.71
63607;BME280;51327;52.466;-1.938;2022-10-16T10:45:41;99355.47;;;9.23;89.30
63607;BME280;51327;52.466;-1.938;2022-10-16T10:48:17;99346.50;;;9.24;89.22
63607;BME280;51327;52.466;-1.938;2022-10-16T10:50:59;99378.25;;;9.54;89.42
63607;BME280;51327;52.466;-1.938;2022-10-16T11:07:15;99323.44;;;10.27;83.25
63607;BME280;51327;52.466;-1.938;2022-10-16T11:09:45;99370.91;;;10.60;82.98
63607;BME280;51327;52.466;-1.938;2022-10-16T11:12:44;99365.88;;;10.68;81.82
63607;BME280;51327;52.466;-1.938;2022-10-16T11:15:18;99348.81;;;10.58;80.90
63607;BME280;51327;52.466;-1.938;2022-10-16T11:18:04;99347.63;;;10.62;78.98
63607;BME280;51327;52.466;-1.938;2022-10-16T11:20:42;99357.44;;;10.74;77.37
63607;BME280;51327;52.466;-1.938;2022-10-16T11:23:28;99359.97;;;10.76;76.66
63607;BME280;51327;52.466;-1.938;2022-10-16T11:26:01;99287.56;;;10.31;76.63
63607;BME280;51327;52.466;-1.938;2022-10-16T11:28:38;99357.31;;;10.76;76.93
63607;BME280;51327;52.466;-1.938;2022-10-16T11:31:12;99373.75;;;10.82;77.46
63607;BME280;51327;52.466;-1.938;2022-10-16T11:34:04;99375.47;;;10.83;77.94
63607;BME280;51327;52.466;-1.938;2022-10-16T11:36:42;99314.56;;;10.52;77.91
63607;BME280;51327;52.466;-1.938;2022-10-16T11:39:18;99378.06;;;10.96;77.25
63607;BME280;51327;52.466;-1.938;2022-10-16T11:41:51;99353.97;;;10.85;76.89
63607;BME280;51327;52.466;-1.938;2022-10-16T11:49:59;99369.59;;;11.15;76.19
63607;BME280;51327;52.466;-1.938;2022-10-16T11:52:52;99313.13;;;10.96;77.23
63607;BME280;51327;52.466;-1.938;2022-10-16T11:55:27;99354.66;;;11.24;75.56
63607;BME280;51327;52.466;-1.938;2022-10-16T12:01:01;99339.66;;;11.34;75.41
63607;BME280;51327;52.466;-1.938;2022-10-16T12:03:45;99287.44;;;11.06;74.83
63607;BME280;51327;52.466;-1.938;2022-10-16T12:08:58;99327.38;;;11.32;74.80
63607;BME280;51327;52.466;-1.938;2022-10-16T12:17:00;99317.19;;;11.13;73.22
63607;BME280;51327;52.466;-1.938;2022-10-16T12:19:29;99315.59;;;11.10;72.85
63607;BME280;51327;52.466;-1.938;2022-10-16T12:22:00;99321.25;;;11.18;72.86
63607;BME280;51327;52.466;-1.938;2022-10-16T12:24:33;99356.69;;;11.44;72.94
63607;BME280;51327;52.466;-1.938;2022-10-16T12:26:59;99308.63;;;11.20;72.79
63607;BME280;51327;52.466;-1.938;2022-10-16T12:29:37;99310.47;;;11.31;72.79
63607;BME280;51327;52.466;-1.938;2022-10-16T12:34:51;99327.09;;;11.59;72.37
63607;BME280;51327;52.466;-1.938;2022-10-16T12:37:24;99292.75;;;11.41;72.49
63607;BME280;51327;52.466;-1.938;2022-10-16T12:39:54;99368.13;;;11.82;71.64
63607;BME280;51327;52.466;-1.938;2022-10-16T12:44:55;99313.53;;;11.84;71.85
63607;BME280;51327;52.466;-1.938;2022-10-16T12:50:00;99312.84;;;12.05;71.03
63607;BME280;51327;52.466;-1.938;2022-10-16T12:52:34;99351.91;;;12.41;70.47
63607;BME280;51327;52.466;-1.938;2022-10-16T12:55:04;99353.84;;;12.50;70.25
63607;BME280;51327;52.466;-1.938;2022-10-16T12:58:09;99361.41;;;12.57;70.62
63607;BME280;51327;52.466;-1.938;2022-10-16T13:01:17;99353.00;;;12.61;69.62
63607;BME280;51327;52.466;-1.938;2022-10-16T13:07:03;99340.56;;;12.60;68.72
63607;BME280;51327;52.466;-1.938;2022-10-16T13:09:42;99350.59;;;12.58;68.42
63607;BME280;51327;52.466;-1.938;2022-10-16T13:18:56;99352.41;;;12.35;68.55
63607;BME280;51327;52.466;-1.938;2022-10-16T13:21:36;99297.00;;;11.79;69.31
63607;BME280;51327;52.466;-1.938;2022-10-16T13:30:12;99350.69;;;12.00;70.57
63607;BME280;51327;52.466;-1.938;2022-10-16T13:32:39;99362.25;;;12.12;71.33
63607;BME280;51327;52.466;-1.938;2022-10-16T13:35:27;99316.81;;;11.77;71.58
63607;BME280;51327;52.466;-1.938;2022-10-16T13:40:51;99343.38;;;11.91;71.78
63607;BME280;51327;52.466;-1.938;2022-10-16T13:43:22;99300.56;;;11.56;72.23
63607;BME280;51327;52.466;-1.938;2022-10-16T13:46:06;99325.53;;;11.67;72.56
63607;BME280;51327;52.466;-1.938;2022-10-16T13:48:33;99355.69;;;11.81;73.17
63607;BME280;51327;52.466;-1.938;2022-10-16T13:51:03;99309.56;;;11.55;73.52
63607;BME280;51327;52.466;-1.938;2022-10-16T13:53:34;99234.47;;;11.11;73.29
63607;BME280;51327;52.466;-1.938;2022-10-16T13:56:05;99357.66;;;11.79;74.00
63607;BME280;51327;52.466;-1.938;2022-10-16T13:58:44;99311.50;;;11.53;74.22
63607;BME280;51327;52.466;-1.938;2022-10-16T14:01:25;99333.22;;;11.72;74.34
63607;BME280;51327;52.466;-1.938;2022-10-16T14:04:01;99295.00;;;11.59;74.95
63607;BME280;51327;52.466;-1.938;2022-10-16T14:06:29;99317.16;;;11.72;75.01
63607;BME280;51327;52.466;-1.938;2022-10-16T14:09:08;99332.78;;;11.89;74.39
63607;BME280;51327;52.466;-1.938;2022-10-16T14:11:56;99284.78;;;11.64;74.21
63607;BME280;51327;52.466;-1.938;2022-10-16T14:14:27;99346.69;;;12.06;73.60
63607;BME280;51327;52.466;-1.938;2022-10-16T14:16:56;99297.09;;;11.78;73.55
63607;BME280;51327;52.466;-1.938;2022-10-16T14:19:24;99348.28;;;12.20;73.23
63607;BME280;51327;52.466;-1.938;2022-10-16T14:21:53;99317.34;;;12.04;72.72
63607;BME280;51327;52.466;-1.938;2022-10-16T14:24:31;99323.81;;;12.24;73.24
63607;BME280;51327;52.466;-1.938;2022-10-16T14:26:58;99332.91;;;12.33;73.61
63607;BME280;51327;52.466;-1.938;2022-10-16T14:29:27;99297.16;;;12.23;73.49
63607;BME280;51327;52.466;-1.938;2022-10-16T14:32:00;99331.34;;;12.42;74.44
63607;BME280;51327;52.466;-1.938;2022-10-16T14:34:34;99284.88;;;12.09;74.65
63607;BME280;51327;52.466;-1.938;2022-10-16T14:37:24;99323.44;;;12.29;74.35
63607;BME280;51327;52.466;-1.938;2022-10-16T14:39:51;99270.88;;;11.94;74.97
63607;BME280;51327;52.466;-1.938;2022-10-16T14:42:21;99201.97;;;11.40;75.64
63607;BME280;51327;52.466;-1.938;2022-10-16T14:44:53;99322.81;;;12.03;75.99
63607;BME280;51327;52.466;-1.938;2022-10-16T14:47:23;99250.13;;;11.51;76.29
63607;BME280;51327;52.466;-1.938;2022-10-16T14:49:55;99296.59;;;11.73;76.36
63607;BME280;51327;52.466;-1.938;2022-10-16T14:52:24;99300.00;;;11.63;76.70
63607;BME280;51327;52.466;-1.938;2022-10-16T14:54:51;99246.53;;;11.28;77.06
63607;BME280;51327;52.466;-1.938;2022-10-16T14:57:27;99260.91;;;11.27;77.99
63607;BME280;51327;52.466;-1.938;2022-10-16T15:00:00;99307.34;;;11.48;78.33
63607;BME280;51327;52.466;-1.938;2022-10-16T15:02:31;99298.34;;;11.38;79.14
63607;BME280;51327;52.466;-1.938;2022-10-16T15:05:12;99308.75;;;11.30;79.90